Airfield :
LOGIN :

Register | Disclaimer

   EN    FR    IT 

 










Legend :    VFR   Marginal VFR   IFR   Intensive IFR   Very Intensive IFR
Visi :
Ceiling :
>= 8 km
>= 3000ft
5 to 8 km
1000 to 3000 ft
1500m to 5 km
500 to 1000 ft
800 to 1500m
200 to 500 ft
< 800m
< 200 ft
Symbols :   Thunderstorms  Fog  Heavy snow  Heavy precipitations  Wind > 20 kt
SIGMETs :     Misc.  Thunderstorms  Icing  Turbulence  Mountain Waves  Volcanic Ashes






- Airport Elevation : 1187 ft


LIBV - Gioia del Colle Bari

CURRENT METAR :
  • 231655Z 16009KT 9999 FEW050 23/09 Q1017 RMK SCT VIS MIN 9999 WIND THR32 16008KT WIND THR14 16009KT BLU

EXPIRED METARs :
  • 231555Z 15011KT CAVOK 24/10 Q1016 RMK SCT SCT060 VIS MIN 9999 WIND THR32 16010KT WIND THR14 16010KT BLU
  • 231455Z 07006KT CAVOK 23/11 Q1017
  • 231355Z 07008KT 9999 BKN050 24/10 Q1017
  • 231255Z 11006KT 9999 SCT050 24/10 Q1017 RMK SCT VIS MIN 9999 WIND THR32 19005KT WIND THR14 17006KT BLU

TAF TAF LIBV
Valid from the 23 at 18:00 until the 24 at 03:00 UTC


231700Z 2318/2403 15006KT CAVOK



MET'MAP, your aeronautical weather chart ! - Copyright ORBIFLY December 2007 - Disclaimer

ORBIFLY MET'MAP TEAM :

Programming & Development : Alexandra Zaïnal
Original concept : Baudouin d'Aumeries
Technical & hardware support : Manuel Goepfert
Assistance : Marc-Olivier Méhu




SOURCES & CREDITS :

   NOAA